Time;durP1;ratioP1;P1;durP2;ratioP2;P2;SDS_P1;SDS_P2;PMS_P1;PMS_P2;Temp;Humidity;BMP_temperature;BMP_pressure;BME280_temperature;BME280_humidity;BME280_pressure;Samples;Min_cycle;Max_cycle;Signal;HPM_P1;HPM_P2
2020/12/11 00:01:47;;;;;;;14.17;9.57;;;2.00;99.90;;;;;;5068675;28;20187;-89
2020/12/11 00:04:15;;;;;;;14.93;10.20;;;1.80;99.90;;;;;;5072136;28;20186;-91
2020/12/11 00:06:44;;;;;;;16.03;9.47;;;1.60;99.90;;;;;;5066038;28;20426;-90
2020/12/11 00:09:23;;;;;;;;;;;;;;;;;;;;;
2020/12/11 00:11:54;;;;;;;15.33;10.07;;;1.30;99.90;;;;;;5059547;28;20521;-91
2020/12/11 00:14:23;;;;;;;17.33;11.23;;;1.10;99.90;;;;;;5051847;28;20460;-89
2020/12/11 00:16:52;;;;;;;20.57;11.50;;;1.00;99.90;;;;;;5047379;28;20531;-88
2020/12/11 00:19:41;;;;;;;13.33;8.53;;;0.90;99.90;;;;;;5064210;28;20446;-90
2020/12/11 00:22:06;;;;;;;10.40;8.50;;;0.80;99.90;;;;;;5044153;28;20430;-88
2020/12/11 00:24:35;;;;;;;13.17;9.60;;;0.70;99.90;;;;;;5050415;28;20430;-89
2020/12/11 00:27:01;;;;;;;14.80;8.60;;;0.50;99.90;;;;;;5034141;28;20212;-89
2020/12/11 00:29:45;;;;;;;14.57;9.70;;;0.40;99.90;;;;;;5048524;28;20445;-87
2020/12/11 00:32:11;;;;;;;13.73;7.87;;;0.30;99.90;;;;;;5049320;28;21374;-90
2020/12/11 00:34:36;;;;;;;15.07;8.80;;;0.20;99.90;;;;;;5051299;28;20440;-91
2020/12/11 00:37:05;;;;;;;15.77;9.57;;;0.10;99.90;;;;;;5050241;28;20196;-89
2020/12/11 00:39:34;;;;;;;16.20;10.23;;;0.10;99.90;;;;;;5046380;28;20836;-89
2020/12/11 00:42:02;;;;;;;18.10;9.10;;;-0.10;99.90;;;;;;5048594;28;20526;-89
2020/12/11 00:44:31;;;;;;;18.87;10.50;;;0.00;99.90;;;;;;5049419;28;20432;-88
2020/12/11 00:47:01;;;;;;;15.23;8.97;;;0.00;99.90;;;;;;5050028;28;20431;-88
2020/12/11 00:49:35;;;;;;;13.90;8.93;;;0.00;99.90;;;;;;5050028;28;20462;-88
2020/12/11 00:52:03;;;;;;;12.80;8.17;;;0.00;99.90;;;;;;5051636;28;20516;-88
2020/12/11 00:54:31;;;;;;;19.40;9.13;;;-0.10;99.90;;;;;;5061630;28;21054;-88
2020/12/11 00:56:57;;;;;;;15.40;9.63;;;-0.20;99.90;;;;;;5050931;28;20438;-88
2020/12/11 00:59:46;;;;;;;14.30;8.90;;;-0.20;99.90;;;;;;5049330;28;20479;-88
2020/12/11 01:02:22;;;;;;;12.07;8.90;;;-0.30;99.90;;;;;;5046363;28;20188;-88
2020/12/11 01:04:51;;;;;;;12.17;8.23;;;-0.40;99.90;;;;;;5031713;28;20463;-89
2020/12/11 01:07:25;;;;;;;11.93;9.10;;;-0.50;99.90;;;;;;5031420;28;20972;-88
2020/12/11 01:09:50;;;;;;;16.00;10.00;;;-0.50;99.90;;;;;;5063064;28;20445;-88
2020/12/11 01:12:16;;;;;;;11.27;9.10;;;-0.30;99.90;;;;;;5046588;28;20428;-87
2020/12/11 01:14:44;;;;;;;10.87;7.30;;;-0.40;99.90;;;;;;5051193;28;20287;-91
2020/12/11 01:17:10;;;;;;;11.43;7.20;;;-0.30;99.90;;;;;;5030692;28;20193;-91
2020/12/11 01:19:38;;;;;;;18.10;7.93;;;-0.30;99.90;;;;;;5047674;28;20454;-89
2020/12/11 01:22:04;;;;;;;11.80;7.93;;;-0.30;99.90;;;;;;5053135;28;20223;-88
2020/12/11 01:24:33;;;;;;;18.43;10.50;;;-0.30;99.90;;;;;;5050391;28;20625;-88
2020/12/11 01:30:29;;;;;;;12.10;8.30;;;-0.40;99.90;;;;;;5170944;22;20535;-86
2020/12/11 01:33:01;;;;;;;12.87;8.70;;;-0.30;99.90;;;;;;5028598;28;20441;-88
2020/12/11 01:35:37;;;;;;;11.30;8.07;;;-0.30;99.90;;;;;;5051939;28;20833;-85
2020/12/11 01:38:04;;;;;;;16.33;9.27;;;-0.20;99.90;;;;;;5050560;28;20435;-84
2020/12/11 01:40:39;;;;;;;13.00;8.60;;;-0.20;99.90;;;;;;5016090;28;20453;-86
2020/12/11 01:43:08;;;;;;;12.23;8.60;;;-0.20;99.90;;;;;;5033109;28;21028;-86
2020/12/11 01:45:36;;;;;;;11.20;7.50;;;-0.10;99.90;;;;;;5032831;28;20453;-86
2020/12/11 01:48:08;;;;;;;10.00;7.80;;;-0.10;99.90;;;;;;5016401;28;20483;-86
2020/12/11 01:50:40;;;;;;;15.90;8.90;;;-0.10;99.90;;;;;;5018361;28;21004;-85
2020/12/11 01:53:12;;;;;;;11.93;8.00;;;-0.10;99.90;;;;;;5000885;28;20482;-87
2020/12/11 01:55:51;;;;;;;9.63;7.00;;;0.00;99.90;;;;;;5027785;28;20428;-87
2020/12/11 01:58:22;;;;;;;11.60;8.00;;;0.00;99.90;;;;;;5031257;28;20434;-85
2020/12/11 02:00:50;;;;;;;11.37;7.87;;;-0.10;99.90;;;;;;5012557;28;20438;-83
2020/12/11 02:03:16;;;;;;;13.77;9.23;;;-0.10;99.90;;;;;;5031052;28;20480;-84
2020/12/11 02:05:42;;;;;;;13.40;9.20;;;-0.10;99.90;;;;;;5031544;28;20464;-85
2020/12/11 02:08:07;;;;;;;14.07;7.57;;;0.00;99.90;;;;;;5030384;28;20472;-85
2020/12/11 02:10:33;;;;;;;12.23;8.00;;;0.00;99.90;;;;;;5015439;28;20202;-86
2020/12/11 02:13:06;;;;;;;11.40;7.63;;;0.00;99.90;;;;;;5026509;28;20193;-86
2020/12/11 02:15:33;;;;;;;10.70;7.97;;;0.10;99.90;;;;;;5033995;28;20206;-84
2020/12/11 02:17:59;;;;;;;13.03;7.17;;;0.20;99.90;;;;;;5032575;28;20474;-85
2020/12/11 02:20:24;;;;;;;10.27;7.67;;;0.20;99.90;;;;;;5010831;28;20494;-84
2020/12/11 02:22:50;;;;;;;12.00;8.00;;;0.30;99.90;;;;;;5031613;28;20251;-87
2020/12/11 02:25:16;;;;;;;13.40;8.83;;;0.30;99.90;;;;;;5013632;28;20229;-85
2020/12/11 02:27:45;;;;;;;10.50;6.80;;;0.40;99.90;;;;;;5011555;28;20231;-85
2020/12/11 02:30:11;;;;;;;17.07;8.23;;;0.40;99.90;;;;;;5029807;28;20234;-85
2020/12/11 02:32:36;;;;;;;13.27;7.90;;;0.40;99.90;;;;;;5032802;28;20528;-86
2020/12/11 02:35:04;;;;;;;12.90;8.20;;;0.40;99.90;;;;;;5029098;28;21072;-86
2020/12/11 02:37:30;;;;;;;11.87;8.10;;;0.40;99.90;;;;;;5033228;28;20200;-86
2020/12/11 02:39:56;;;;;;;11.83;7.47;;;0.30;99.90;;;;;;5034723;28;20581;-87
2020/12/11 02:42:21;;;;;;;11.40;7.80;;;0.30;99.90;;;;;;5029639;28;20228;-86
2020/12/11 02:44:47;;;;;;;11.33;7.77;;;0.40;99.90;;;;;;5031958;28;20196;-86
2020/12/11 02:47:16;;;;;;;16.67;8.87;;;0.30;99.90;;;;;;5017320;28;20210;-86
2020/12/11 02:49:42;;;;;;;11.77;8.00;;;0.30;99.90;;;;;;5017498;28;20218;-83
2020/12/11 02:52:08;;;;;;;13.30;8.47;;;0.30;99.90;;;;;;5029834;28;20436;-88
2020/12/11 02:54:33;;;;;;;12.10;7.27;;;0.30;99.90;;;;;;5033947;28;20445;-87
2020/12/11 02:56:59;;;;;;;12.77;8.17;;;0.40;99.90;;;;;;5014035;28;20216;-87
2020/12/11 02:59:25;;;;;;;13.73;9.43;;;0.40;99.90;;;;;;5033936;28;20246;-85
2020/12/11 03:01:50;;;;;;;11.30;7.50;;;0.50;99.90;;;;;;5001154;28;20607;-85
2020/12/11 03:04:16;;;;;;;13.17;8.70;;;0.50;99.90;;;;;;5010046;28;20217;-86
2020/12/11 03:06:41;;;;;;;9.47;7.50;;;0.40;99.90;;;;;;5012441;28;20878;-85
2020/12/11 03:09:07;;;;;;;15.00;8.93;;;0.30;99.90;;;;;;5030606;28;20214;-85
2020/12/11 03:11:33;;;;;;;10.87;7.27;;;0.30;99.90;;;;;;5027068;28;20539;-84
2020/12/11 03:13:58;;;;;;;14.53;8.63;;;0.30;99.90;;;;;;5010403;28;20620;-86
2020/12/11 03:16:27;;;;;;;12.07;8.37;;;0.30;99.90;;;;;;5027484;28;20267;-85
2020/12/11 03:18:55;;;;;;;11.23;8.10;;;0.40;99.90;;;;;;5028807;28;20587;-85
2020/12/11 03:21:21;;;;;;;11.53;7.23;;;0.40;99.90;;;;;;5026453;28;20917;-86
2020/12/11 03:23:49;;;;;;;12.57;8.50;;;0.30;99.90;;;;;;5029948;28;20446;-82
2020/12/11 03:26:17;;;;;;;10.20;6.40;;;0.30;99.90;;;;;;5028919;28;20648;-86
2020/12/11 03:28:42;;;;;;;11.70;6.93;;;0.30;99.90;;;;;;5026579;28;20551;-83
2020/12/11 03:31:08;;;;;;;10.00;7.40;;;0.30;99.90;;;;;;5015371;28;20873;-84
2020/12/11 03:33:43;;;;;;;10.53;6.90;;;0.30;99.90;;;;;;5028416;28;20182;-87
2020/12/11 03:36:09;;;;;;;12.10;8.50;;;0.30;99.90;;;;;;5009314;28;20202;-85
2020/12/11 03:38:35;;;;;;;11.77;8.13;;;0.20;99.90;;;;;;5012696;28;20456;-86
2020/12/11 03:41:00;;;;;;;10.77;7.43;;;0.20;99.90;;;;;;5029814;28;20462;-86
2020/12/11 03:43:26;;;;;;;12.80;8.17;;;0.20;99.90;;;;;;5026274;28;20197;-86
2020/12/11 03:45:52;;;;;;;11.87;7.47;;;0.20;99.90;;;;;;5029858;28;20222;-85
2020/12/11 03:48:17;;;;;;;11.47;7.40;;;0.20;99.90;;;;;;5012805;28;20626;-86
2020/12/11 03:50:46;;;;;;;10.83;8.50;;;0.20;99.90;;;;;;5010648;28;20547;-86
2020/12/11 03:53:25;;;;;;;11.40;7.50;;;0.30;99.90;;;;;;5026346;28;20219;-87
2020/12/11 03:55:58;;;;;;;12.43;7.87;;;0.30;99.90;;;;;;5011020;28;20421;-86
2020/12/11 03:58:33;;;;;;;10.27;6.90;;;0.30;99.90;;;;;;5025762;28;20592;-87
2020/12/11 04:01:05;;;;;;;11.57;7.33;;;0.40;99.90;;;;;;4993965;28;20476;-84
2020/12/11 04:03:33;;;;;;;9.90;6.87;;;0.40;99.90;;;;;;5014235;28;20456;-82
2020/12/11 04:06:04;;;;;;;9.90;6.73;;;0.40;99.90;;;;;;5013000;28;20430;-85
2020/12/11 04:08:30;;;;;;;13.30;8.30;;;0.50;99.90;;;;;;5009693;28;21078;-85
2020/12/11 04:11:10;;;;;;;11.90;7.20;;;0.40;99.90;;;;;;5008989;28;20522;-87
2020/12/11 04:13:51;;;;;;;;;;;;;;;;;;;;;
2020/12/11 04:16:20;;;;;;;18.20;8.93;;;0.30;99.90;;;;;;5028662;28;20443;-85
2020/12/11 04:18:45;;;;;;;11.97;7.00;;;0.20;99.90;;;;;;5025125;28;20456;-84
2020/12/11 04:21:17;;;;;;;10.33;7.80;;;0.20;99.90;;;;;;5010185;28;20532;-87
2020/12/11 04:23:50;;;;;;;11.17;7.20;;;0.20;99.90;;;;;;5026018;28;20241;-86
2020/12/11 04:26:18;;;;;;;11.83;7.33;;;0.20;99.90;;;;;;5027389;28;20575;-85
2020/12/11 04:28:49;;;;;;;11.00;6.93;;;0.20;99.90;;;;;;5025577;28;20492;-86
2020/12/11 04:31:32;;;;;;;12.60;8.47;;;0.10;99.90;;;;;;5010461;28;20477;-85
2020/12/11 04:33:58;;;;;;;10.87;7.27;;;0.00;99.90;;;;;;5027020;28;20518;-83
2020/12/11 04:36:26;;;;;;;12.57;7.43;;;0.00;99.90;;;;;;5010309;28;20516;-84
2020/12/11 04:38:55;;;;;;;10.00;7.77;;;-0.10;99.90;;;;;;5027441;28;20221;-86
2020/12/11 04:41:26;;;;;;;13.17;8.37;;;-0.20;99.90;;;;;;5008270;28;20497;-84
2020/12/11 04:43:52;;;;;;;12.97;8.57;;;-0.20;99.90;;;;;;5011571;28;20637;-85
2020/12/11 04:46:33;;;;;;;15.23;8.50;;;-0.20;99.90;;;;;;5034109;28;20529;-86
2020/12/11 04:48:59;;;;;;;8.67;5.77;;;-0.20;99.90;;;;;;5029593;28;20475;-83
2020/12/11 04:51:34;;;;;;;9.47;6.53;;;-0.30;99.90;;;;;;5030405;28;20958;-83
2020/12/11 04:54:02;;;;;;;15.97;8.10;;;-0.40;99.90;;;;;;5030334;28;20539;-84
2020/12/11 04:56:29;;;;;;;13.53;8.07;;;-0.50;99.90;;;;;;5015919;28;20425;-85
2020/12/11 04:59:04;;;;;;;12.40;8.27;;;-0.60;99.90;;;;;;5029747;28;20516;-87
2020/12/11 05:01:41;;;;;;;12.60;8.47;;;-0.60;99.90;;;;;;4999084;28;21833;-88
2020/12/11 05:04:07;;;;;;;14.47;6.83;;;-0.60;99.90;;;;;;5015627;28;20921;-87
2020/12/11 05:06:32;;;;;;;14.20;9.40;;;-0.50;99.90;;;;;;5016013;28;20464;-87
2020/12/11 05:09:13;;;;;;;11.60;8.27;;;-0.50;99.90;;;;;;4998883;28;20213;-87
2020/12/11 05:11:50;;;;;;;13.80;8.70;;;-0.50;99.90;;;;;;5030091;28;20923;-87
2020/12/11 05:14:21;;;;;;;12.93;6.83;;;-0.50;99.90;;;;;;5030940;28;20431;-87
2020/12/11 05:17:10;;;;;;;11.47;7.17;;;-0.50;99.90;;;;;;5030399;28;20465;-85
2020/12/11 05:20:00;;;;;;;14.33;8.97;;;-0.50;99.90;;;;;;5010948;28;20474;-87
2020/12/11 05:22:48;;;;;;;12.33;7.50;;;-0.50;99.90;;;;;;5010458;28;21043;-87
2020/12/11 05:25:24;;;;;;;9.80;7.10;;;-0.60;99.90;;;;;;5029324;28;20439;-87
2020/12/11 05:27:50;;;;;;;10.43;6.80;;;-0.70;99.90;;;;;;5011698;28;20834;-86
2020/12/11 05:30:16;;;;;;;13.57;7.50;;;-0.60;99.90;;;;;;4995870;28;20754;-86
2020/12/11 05:32:49;;;;;;;11.10;6.77;;;-0.70;99.90;;;;;;5031629;28;20182;-87
2020/12/11 05:35:15;;;;;;;14.97;7.13;;;-0.80;99.90;;;;;;5030070;28;20250;-86
2020/12/11 05:38:03;;;;;;;9.77;7.30;;;-0.90;99.90;;;;;;5030480;28;20440;-87
2020/12/11 05:40:30;;;;;;;11.53;6.23;;;-0.90;99.90;;;;;;5030009;28;20184;-86
2020/12/11 05:43:16;;;;;;;11.80;7.33;;;-0.80;99.90;;;;;;5028147;28;21060;-86
2020/12/11 05:45:57;;;;;;;13.43;7.37;;;-0.80;99.90;;;;;;5013200;28;20798;-86
2020/12/11 05:48:35;;;;;;;17.50;7.33;;;-0.70;99.90;;;;;;5027381;28;20827;-86
2020/12/11 05:51:12;;;;;;;12.60;7.97;;;-0.70;99.90;;;;;;5010114;28;20447;-86
2020/12/11 05:53:48;;;;;;;12.00;7.50;;;-0.70;99.90;;;;;;5011974;28;20585;-88
2020/12/11 05:56:31;;;;;;;10.90;7.77;;;-0.70;99.90;;;;;;5011115;28;20435;-89
2020/12/11 05:59:19;;;;;;;12.67;7.03;;;-0.70;99.90;;;;;;5041110;28;21001;-88
2020/12/11 06:01:46;;;;;;;11.53;8.57;;;-0.60;99.90;;;;;;5009170;28;20965;-87
2020/12/11 06:04:12;;;;;;;11.00;8.00;;;-0.50;99.90;;;;;;4998290;28;20494;-87
2020/12/11 06:06:41;;;;;;;13.57;8.60;;;-0.40;99.90;;;;;;5023118;28;20436;-84
2020/12/11 06:09:13;;;;;;;17.00;11.20;;;-0.20;99.90;;;;;;5014883;28;20470;-87
2020/12/11 06:11:52;;;;;;;14.47;8.20;;;-0.10;99.90;;;;;;5015695;28;20534;-86
2020/12/11 06:14:29;;;;;;;12.87;6.87;;;0.00;99.90;;;;;;5031029;28;20700;-89
2020/12/11 06:16:59;;;;;;;12.17;8.03;;;0.10;99.90;;;;;;5028332;28;20466;-87
2020/12/11 06:19:26;;;;;;;14.97;8.13;;;0.20;99.90;;;;;;5015202;28;20466;-86
2020/12/11 06:21:52;;;;;;;12.00;7.83;;;0.30;99.90;;;;;;5013931;28;20452;-87
2020/12/11 06:24:32;;;;;;;11.33;8.60;;;0.40;99.90;;;;;;5008886;28;20443;-88
2020/12/11 06:26:59;;;;;;;14.20;8.83;;;0.50;99.90;;;;;;5029826;28;20812;-87
2020/12/11 06:29:32;;;;;;;16.27;9.50;;;0.50;99.90;;;;;;5031012;28;20473;-88
2020/12/11 06:31:58;;;;;;;13.77;7.40;;;0.60;99.90;;;;;;5043349;28;20440;-86
2020/12/11 06:34:35;;;;;;;13.97;8.23;;;0.70;99.90;;;;;;5007790;28;20966;-87
2020/12/11 06:37:03;;;;;;;13.97;8.93;;;0.80;99.90;;;;;;5029287;28;20468;-86
2020/12/11 06:39:48;;;;;;;19.53;8.50;;;0.90;99.90;;;;;;5026163;28;20948;-87
2020/12/11 06:42:58;;;;;;;12.60;8.30;;;1.00;99.90;;;;;;5027305;28;20451;-85
2020/12/11 06:45:26;;;;;;;13.50;8.70;;;1.00;99.90;;;;;;4950473;28;20433;-87
2020/12/11 06:48:14;;;;;;;14.80;8.47;;;1.10;99.90;;;;;;5019970;28;20470;-86
2020/12/11 06:51:04;;;;;;;11.50;8.53;;;1.20;99.90;;;;;;5025210;28;20434;-86
2020/12/11 06:53:42;;;;;;;11.53;8.13;;;1.30;99.90;;;;;;5025242;28;20454;-84
2020/12/11 06:56:07;;;;;;;16.63;9.43;;;1.30;99.90;;;;;;5026268;28;20446;-86
2020/12/11 06:59:06;;;;;;;13.07;9.50;;;1.30;99.90;;;;;;5026143;28;20520;-87
2020/12/11 07:01:32;;;;;;;14.07;7.33;;;1.30;99.90;;;;;;5027980;28;20196;-88
2020/12/11 07:04:03;;;;;;;12.67;7.77;;;1.30;99.90;;;;;;5011700;28;20525;-88
2020/12/11 07:06:28;;;;;;;15.77;8.17;;;1.40;99.90;;;;;;5027053;28;20226;-83
2020/12/11 07:08:54;;;;;;;13.97;8.73;;;1.50;99.90;;;;;;5026841;28;20507;-86
2020/12/11 07:11:20;;;;;;;12.73;8.30;;;1.50;99.90;;;;;;5027935;28;20338;-86
2020/12/11 07:13:46;;;;;;;12.40;7.87;;;1.60;99.90;;;;;;5000651;28;20202;-85
2020/12/11 07:16:12;;;;;;;17.40;10.90;;;1.60;99.90;;;;;;4998456;28;20438;-87
2020/12/11 07:18:40;;;;;;;15.43;8.83;;;1.70;99.90;;;;;;5031424;28;20493;-87
2020/12/11 07:21:12;;;;;;;13.70;8.97;;;1.70;99.90;;;;;;5017034;28;20902;-88
2020/12/11 07:23:46;;;;;;;15.30;9.90;;;1.70;99.90;;;;;;5009315;28;20482;-84
2020/12/11 07:26:25;;;;;;;15.43;8.90;;;1.70;99.90;;;;;;5026762;28;20931;-85
2020/12/11 07:29:13;;;;;;;17.40;9.77;;;1.80;99.90;;;;;;5015872;28;20484;-86
2020/12/11 07:31:40;;;;;;;13.37;8.73;;;1.80;99.90;;;;;;5015804;28;20442;-86
2020/12/11 07:34:18;;;;;;;13.77;8.77;;;1.90;99.90;;;;;;4997451;28;20436;-85
2020/12/11 07:36:57;;;;;;;18.20;9.17;;;2.00;99.90;;;;;;5029994;28;20435;-86
2020/12/11 07:39:26;;;;;;;15.47;8.53;;;2.10;99.90;;;;;;5027496;28;20484;-85
2020/12/11 07:41:55;;;;;;;14.57;8.23;;;2.10;99.90;;;;;;5031251;28;20431;-86
2020/12/11 07:44:37;;;;;;;16.43;9.97;;;2.20;99.90;;;;;;5029485;28;20466;-88
2020/12/11 07:47:12;;;;;;;15.40;8.70;;;2.20;99.90;;;;;;5004624;28;20447;-87
2020/12/11 07:49:45;;;;;;;18.10;10.13;;;2.20;99.90;;;;;;5039593;28;20490;-87
2020/12/11 07:52:24;;;;;;;18.97;10.20;;;2.30;99.90;;;;;;5014871;28;20467;-87
2020/12/11 07:54:49;;;;;;;15.80;9.27;;;2.30;99.90;;;;;;5021584;28;20431;-84
2020/12/11 07:57:22;;;;;;;16.17;8.40;;;2.40;99.90;;;;;;5021468;28;20452;-84
2020/12/11 08:00:01;;;;;;;16.20;8.90;;;2.50;99.90;;;;;;5009282;28;20362;-85
2020/12/11 08:02:34;;;;;;;14.90;8.87;;;2.70;99.90;;;;;;5009570;28;20427;-84
2020/12/11 08:05:07;;;;;;;17.07;10.70;;;2.80;99.90;;;;;;5008968;28;20534;-86
2020/12/11 08:07:40;;;;;;;15.53;9.77;;;2.80;99.90;;;;;;5023251;28;20482;-85
2020/12/11 08:10:18;;;;;;;12.70;8.17;;;2.90;99.90;;;;;;5008992;28;20532;-89
2020/12/11 08:12:47;;;;;;;13.03;7.60;;;3.10;99.90;;;;;;5026448;28;20468;-86
2020/12/11 08:15:31;;;;;;;13.80;8.37;;;3.10;99.90;;;;;;5007525;28;20431;-86
2020/12/11 08:18:27;;;;;;;13.60;9.03;;;3.00;99.90;;;;;;5024912;28;20489;-86
2020/12/11 08:20:58;;;;;;;13.60;8.27;;;3.10;99.90;;;;;;5010880;28;20447;-85
2020/12/11 08:23:39;;;;;;;17.13;9.80;;;3.10;99.90;;;;;;5027528;28;20619;-85
2020/12/11 08:26:18;;;;;;;10.80;7.50;;;3.20;99.90;;;;;;5030688;28;20516;-85
2020/12/11 08:29:02;;;;;;;11.37;7.67;;;3.20;99.90;;;;;;5028095;28;20552;-83
2020/12/11 08:31:28;;;;;;;13.83;7.50;;;3.30;99.90;;;;;;5011512;28;20449;-86
2020/12/11 08:34:05;;;;;;;13.73;8.07;;;3.40;99.90;;;;;;5016584;28;20471;-83
2020/12/11 08:36:36;;;;;;;12.03;6.53;;;3.40;99.90;;;;;;5005849;28;20465;-83
2020/12/11 08:39:09;;;;;;;13.57;8.30;;;3.40;99.90;;;;;;5026893;28;20461;-85
2020/12/11 08:41:51;;;;;;;8.93;6.47;;;3.40;99.90;;;;;;5027467;28;20423;-86
2020/12/11 08:51:18;;;;;;;8.90;6.03;;;3.40;99.90;;;;;;4925428;29;20434;-85
2020/12/11 08:53:54;;;;;;;7.57;5.87;;;3.20;99.90;;;;;;5025304;28;21035;-84
2020/12/11 09:03:34;;;;;;;22.67;6.53;;;3.00;99.90;;;;;;4931027;28;20434;-86
2020/12/11 09:10:27;;;;;;;9.53;6.80;;;3.20;99.90;;;;;;5000391;28;20508;-88
2020/12/11 09:20:20;;;;;;;9.80;6.37;;;3.50;99.90;;;;;;5084570;22;20500;-89
2020/12/11 09:23:00;;;;;;;9.93;6.63;;;3.60;99.90;;;;;;5055341;28;20445;-88
2020/12/11 09:26:22;;;;;;;;;;;;;;;;;;;;;
2020/12/11 09:35:48;;;;;;;;;;;;;;;;;;;;;
2020/12/11 09:50:05;;;;;;;10.03;7.07;;;4.80;99.90;;;;;;4934134;28;20498;-89
2020/12/11 09:56:49;;;;;;;;;;;;;;;;;;;;;
2020/12/11 10:14:40;;;;;;;11.57;6.97;;;5.00;99.90;;;;;;5043208;28;20489;-77
2020/12/11 10:17:13;;;;;;;14.23;7.17;;;5.00;99.90;;;;;;5040367;28;20461;-79
2020/12/11 10:19:39;;;;;;;11.67;7.70;;;4.80;99.90;;;;;;5061139;28;20602;-78
2020/12/11 10:22:05;;;;;;;10.57;7.53;;;4.60;99.90;;;;;;5064232;28;20520;-79
2020/12/11 10:24:31;;;;;;;10.67;7.10;;;4.60;99.90;;;;;;5056784;28;20195;-78
2020/12/11 10:41:25;;;;;;;12.60;8.20;;;4.40;99.90;;;;;;5390405;22;21383;-88
2020/12/11 10:43:57;;;;;;;13.07;8.23;;;4.50;99.90;;;;;;5019816;28;20505;-82
2020/12/11 10:46:31;;;;;;;12.87;8.80;;;4.70;99.90;;;;;;5025055;28;20489;-87
2020/12/11 10:49:25;;;;;;;13.60;8.50;;;4.90;99.90;;;;;;5034625;28;20508;-86
2020/12/11 13:05:17;;;;;;;12.47;9.27;;;6.20;99.90;;;;;;4975227;23;20491;-79
2020/12/11 13:07:43;;;;;;;18.07;9.57;;;6.40;99.90;;;;;;5018878;28;20843;-74
2020/12/11 13:10:09;;;;;;;19.37;10.93;;;6.50;99.90;;;;;;5007637;28;20448;-79
2020/12/11 13:12:34;;;;;;;17.80;10.40;;;6.60;99.90;;;;;;5004796;28;20201;-78
2020/12/11 13:15:00;;;;;;;13.80;8.80;;;6.60;99.90;;;;;;5009174;28;20264;-79
2020/12/11 13:17:26;;;;;;;17.30;10.77;;;6.70;99.90;;;;;;5008350;28;20328;-80
2020/12/11 13:19:52;;;;;;;16.43;10.00;;;6.50;99.90;;;;;;5008228;28;20197;-80
2020/12/11 13:27:29;;;;;;;13.30;8.90;;;6.00;99.90;;;;;;5005002;28;20188;-79
2020/12/11 13:30:52;;;;;;;;;;;;;;;;;;;;;
2020/12/11 14:11:46;;;;;;;13.70;11.37;;;4.60;99.90;;;;;;5025572;28;21465;-91
2020/12/11 14:17:52;;;;;;;17.83;10.63;;;4.50;99.90;;;;;;4947127;28;20817;-92
2020/12/11 14:21:04;;;;;;;15.07;9.73;;;4.50;99.90;;;;;;4922918;29;20527;-90
2020/12/11 14:24:40;;;;;;;15.17;9.93;;;4.50;99.90;;;;;;4989817;28;20584;-89
2020/12/11 15:39:18;;;;;;;17.07;11.50;;;3.90;99.90;;;;;;4851174;29;20554;-84
2020/12/11 15:41:47;;;;;;;15.83;10.10;;;3.80;99.90;;;;;;4881672;29;20456;-83
2020/12/11 15:44:12;;;;;;;15.30;10.33;;;3.90;99.90;;;;;;4917114;29;20514;-83
2020/12/11 15:50:29;;;;;;;13.67;10.50;;;3.90;99.90;;;;;;4921141;28;20232;-84
2020/12/11 15:53:15;;;;;;;18.20;11.70;;;3.90;99.90;;;;;;4931566;29;20535;-81
2020/12/11 15:56:25;;;;;;;;;;;;;;;;;;;;;
2020/12/11 15:58:52;;;;;;;18.87;11.17;;;4.00;99.90;;;;;;4923669;28;20958;-86
2020/12/11 16:02:06;;;;;;;14.50;11.83;;;4.10;99.90;;;;;;4911586;29;20479;-86
2020/12/11 17:08:18;;;;;;;12.20;8.52;;;5.20;99.90;;;;;;3363807;23;20861;-85
2020/12/11 17:14:38;;;;;;;8.77;6.47;;;5.30;99.90;;;;;;4889214;29;20434;-86
2020/12/11 17:17:14;;;;;;;14.27;8.30;;;5.40;99.90;;;;;;4869666;29;20469;-84
2020/12/11 17:19:43;;;;;;;12.53;7.67;;;5.40;99.90;;;;;;4927836;28;21058;-86
2020/12/11 17:22:12;;;;;;;10.27;7.00;;;5.40;99.90;;;;;;4947998;28;20435;-84
2020/12/11 19:12:31;;;;;;;16.63;10.90;;;5.50;99.90;;;;;;3181113;23;20497;-89
2020/12/11 19:18:55;;;;;;;12.80;8.63;;;5.60;99.90;;;;;;4925953;29;20604;-87
2020/12/11 20:42:54;;;;;;;;;;;;;;;;;;;;;
2020/12/11 22:06:46;;;;;;;12.83;9.80;;;4.90;99.90;;;;;;4383350;23;21112;-88
2020/12/11 22:10:01;;;;;;;17.17;10.10;;;4.80;99.90;;;;;;4925882;28;20555;-88
2020/12/11 22:14:15;;;;;;;14.57;9.70;;;4.90;99.90;;;;;;4881162;29;20574;-86
2020/12/11 22:19:12;;;;;;;17.93;10.50;;;5.00;99.90;;;;;;4964948;28;21060;-92
2020/12/11 22:22:20;;;;;;;15.23;8.70;;;4.90;99.90;;;;;;4966457;28;20469;-90
2020/12/11 22:25:08;;;;;;;12.67;8.67;;;4.90;99.90;;;;;;4896314;28;20982;-89
2020/12/11 22:27:48;;;;;;;9.27;7.50;;;4.80;99.90;;;;;;4961391;28;20520;-89
2020/12/11 22:33:59;;;;;;;12.37;9.40;;;4.80;99.90;;;;;;4908052;29;21030;-88
2020/12/11 22:36:36;;;;;;;10.93;8.50;;;4.80;99.90;;;;;;4896025;29;20440;-88
2020/12/11 22:42:55;;;;;;;16.50;7.30;;;4.80;99.90;;;;;;4953937;28;20450;-88
2020/12/11 22:45:31;;;;;;;11.27;8.50;;;4.80;99.90;;;;;;4952054;28;20805;-85
2020/12/11 22:47:57;;;;;;;13.83;9.17;;;4.90;99.90;;;;;;4934830;28;20519;-85
2020/12/11 22:50:36;;;;;;;12.20;9.03;;;4.90;99.90;;;;;;4937277;28;20498;-85
2020/12/11 22:53:06;;;;;;;12.93;9.20;;;4.90;99.90;;;;;;4950247;28;20458;-87
2020/12/11 22:55:38;;;;;;;14.07;9.00;;;4.90;99.90;;;;;;4940317;28;20498;-88
2020/12/11 22:58:22;;;;;;;9.25;7.75;;;4.90;99.90;;;;;;4925629;28;20321;-85
2020/12/11 23:01:05;;;;;;;11.07;8.40;;;4.90;99.90;;;;;;4955307;28;20317;-85
2020/12/11 23:03:34;;;;;;;12.00;9.70;;;5.00;99.90;;;;;;4924461;28;21113;-86
2020/12/11 23:06:43;;;;;;;11.97;9.27;;;5.00;99.90;;;;;;4962800;28;20487;-87
2020/12/11 23:09:28;;;;;;;9.50;6.93;;;5.00;99.90;;;;;;4938119;28;20473;-87
2020/12/11 23:12:34;;;;;;;9.70;6.57;;;4.90;99.90;;;;;;4936593;28;20443;-88
2020/12/11 23:15:52;;;;;;;8.13;6.77;;;4.80;99.90;;;;;;4926403;28;20434;-88
2020/12/11 23:26:11;;;;;;;9.10;6.67;;;5.10;99.90;;;;;;4101262;26;20545;-86
2020/12/11 23:28:39;;;;;;;12.03;8.40;;;5.00;99.90;;;;;;4951145;28;20843;-85
2020/12/11 23:31:20;;;;;;;9.97;7.13;;;5.10;99.90;;;;;;4968536;28;20441;-90
2020/12/11 23:33:56;;;;;;;11.43;7.73;;;5.20;99.90;;;;;;4948294;28;20944;-89
2020/12/11 23:37:11;;;;;;;11.43;8.13;;;5.20;99.90;;;;;;4955409;28;20435;-89
2020/12/11 23:40:29;;;;;;;;;;;;;;;;;;;;;
2020/12/11 23:42:58;;;;;;;8.50;7.10;;;5.20;99.90;;;;;;4971569;28;20426;-86
2020/12/11 23:45:49;;;;;;;8.17;6.30;;;5.40;99.90;;;;;;4941755;28;20542;-86
2020/12/11 23:48:20;;;;;;;11.23;6.70;;;5.50;99.90;;;;;;4955985;28;21053;-85
2020/12/11 23:54:33;;;;;;;7.73;6.10;;;5.60;99.90;;;;;;4948297;28;21013;-87
2020/12/11 23:57:01;;;;;;;10.63;7.80;;;5.60;99.90;;;;;;4953005;28;20504;-85
2020/12/11 23:59:26;;;;;;;7.97;7.13;;;5.60;99.90;;;;;;4955459;28;20534;-85
